createdAt,value
2019-05-23T00:00:14.000Z,9.30
2019-05-23T00:03:02.772Z,9.20
2019-05-23T00:05:52.031Z,9.10
2019-05-23T00:08:40.636Z,9.10
2019-05-23T00:11:32.110Z,9.00
2019-05-23T00:14:33.049Z,9.00
2019-05-23T00:17:04.985Z,8.90
2019-05-23T00:19:35.166Z,8.80
2019-05-23T00:22:07.949Z,8.80
2019-05-23T00:24:39.411Z,8.70
2019-05-23T00:27:09.915Z,8.70
2019-05-23T00:29:41.194Z,8.70
2019-05-23T00:32:12.817Z,8.60
2019-05-23T00:34:45.328Z,8.50
2019-05-23T00:37:16.248Z,8.50
2019-05-23T00:39:47.160Z,8.50
2019-05-23T00:42:17.295Z,8.40
2019-05-23T00:44:48.982Z,8.50
2019-05-23T00:47:20.111Z,8.40
2019-05-23T00:49:50.973Z,8.40
2019-05-23T00:52:21.476Z,8.40
2019-05-23T00:54:51.768Z,8.40
2019-05-23T00:57:21.820Z,8.30
2019-05-23T00:59:53.834Z,8.20
2019-05-23T01:02:24.894Z,8.20
2019-05-23T01:04:54.969Z,8.20
2019-05-23T01:07:25.846Z,8.10
2019-05-23T01:09:56.573Z,8.10
2019-05-23T01:12:27.898Z,8.00
2019-05-23T01:14:58.657Z,8.00
2019-05-23T01:17:30.532Z,8.00
2019-05-23T01:20:00.978Z,7.90
2019-05-23T01:22:31.233Z,7.90
2019-05-23T01:25:01.347Z,7.90
2019-05-23T01:27:31.281Z,7.80
2019-05-23T01:30:02.862Z,7.80
2019-05-23T01:32:37.979Z,7.80
2019-05-23T01:35:10.024Z,7.80
2019-05-23T01:37:41.157Z,7.90
2019-05-23T01:40:13.779Z,7.90
2019-05-23T01:42:44.380Z,7.90
2019-05-23T01:45:16.392Z,7.90
2019-05-23T01:47:47.799Z,7.90
2019-05-23T01:50:20.937Z,7.90
2019-05-23T01:52:51.594Z,7.90
2019-05-23T01:55:21.887Z,7.90
2019-05-23T01:57:52.436Z,7.90
2019-05-23T02:00:24.689Z,7.90
2019-05-23T02:02:54.993Z,7.80
2019-05-23T02:05:25.218Z,7.70
2019-05-23T02:07:55.272Z,7.60
2019-05-23T02:10:25.780Z,7.60
2019-05-23T02:12:56.832Z,7.60
2019-05-23T02:15:26.987Z,7.60
2019-05-23T02:17:57.542Z,7.50
2019-05-23T02:20:29.152Z,7.60
2019-05-23T02:22:59.419Z,7.50
2019-05-23T02:25:30.508Z,7.50
2019-05-23T02:28:00.332Z,7.50
2019-05-23T02:30:34.780Z,7.40
2019-05-23T02:33:03.767Z,7.40
2019-05-23T02:35:34.144Z,7.30
2019-05-23T02:38:12.079Z,7.30
2019-05-23T02:40:59.473Z,7.30
2019-05-23T02:43:30.920Z,7.40
2019-05-23T02:46:03.512Z,7.40
2019-05-23T02:48:45.980Z,7.30
2019-05-23T02:51:31.219Z,7.30
2019-05-23T02:54:04.035Z,7.30
2019-05-23T02:56:38.436Z,7.30
2019-05-23T02:59:15.499Z,7.20
2019-05-23T03:02:22.367Z,7.20
2019-05-23T03:04:52.609Z,7.20
2019-05-23T03:07:24.728Z,7.20
2019-05-23T03:09:54.966Z,7.20
2019-05-23T03:12:26.640Z,7.10
2019-05-23T03:14:57.194Z,7.20
2019-05-23T03:17:29.913Z,7.20
2019-05-23T03:20:02.275Z,7.10
2019-05-23T03:22:37.192Z,7.20
2019-05-23T03:25:16.082Z,7.10
2019-05-23T03:27:46.703Z,7.20
2019-05-23T03:30:19.079Z,7.20
2019-05-23T03:32:51.065Z,7.20
2019-05-23T03:35:25.458Z,7.20
2019-05-23T03:37:56.299Z,7.10
2019-05-23T03:40:26.440Z,7.10
2019-05-23T03:42:57.347Z,7.10
2019-05-23T03:45:32.719Z,7.20
2019-05-23T03:48:05.087Z,7.20
2019-05-23T03:50:35.401Z,7.20
2019-05-23T03:53:08.268Z,7.20
2019-05-23T03:55:38.653Z,7.30
2019-05-23T03:58:09.805Z,7.40
2019-05-23T04:00:41.566Z,7.50
2019-05-23T04:03:11.603Z,7.70
2019-05-23T04:05:41.418Z,7.80
2019-05-23T04:08:12.179Z,7.90
2019-05-23T04:10:42.063Z,8.00
2019-05-23T04:13:12.019Z,8.30
2019-05-23T04:15:43.514Z,8.40
2019-05-23T04:18:13.898Z,8.70
2019-05-23T04:20:43.765Z,9.30
2019-05-23T04:23:14.086Z,10.00
2019-05-23T04:25:45.299Z,10.10
2019-05-23T04:28:15.808Z,10.10
2019-05-23T04:30:46.346Z,10.10
2019-05-23T04:33:16.840Z,10.30
2019-05-23T04:35:47.981Z,10.30
2019-05-23T04:38:18.088Z,10.40
2019-05-23T04:40:48.000Z,10.50
2019-05-23T04:43:18.869Z,10.70
2019-05-23T04:45:50.335Z,11.20
2019-05-23T04:48:20.602Z,11.80
2019-05-23T04:50:50.586Z,12.20
2019-05-23T04:53:20.552Z,12.40
2019-05-23T04:55:50.438Z,12.80
2019-05-23T04:58:20.344Z,13.10
2019-05-23T05:00:51.256Z,13.40
2019-05-23T05:03:21.944Z,13.60
2019-05-23T05:05:51.882Z,14.20
2019-05-23T05:08:22.291Z,14.10
2019-05-23T05:10:53.673Z,14.60
2019-05-23T05:13:23.654Z,14.90
2019-05-23T05:15:54.071Z,15.20
2019-05-23T05:18:24.614Z,15.30
2019-05-23T05:20:54.653Z,15.50
2019-05-23T05:23:25.196Z,15.40
2019-05-23T05:25:55.356Z,16.00
2019-05-23T05:28:25.572Z,15.90
2019-05-23T05:30:55.840Z,17.20
2019-05-23T05:33:25.741Z,18.40
2019-05-23T05:35:56.191Z,18.60
2019-05-23T05:38:28.583Z,19.30
2019-05-23T05:40:58.108Z,19.70
2019-05-23T05:43:28.632Z,20.60
2019-05-23T05:45:59.289Z,21.30
2019-05-23T05:48:30.396Z,21.40
2019-05-23T05:51:00.591Z,21.50
2019-05-23T05:53:30.862Z,22.30
2019-05-23T05:56:00.727Z,22.30
2019-05-23T05:58:30.611Z,22.80
2019-05-23T06:01:02.350Z,23.00
2019-05-23T06:03:33.031Z,23.10
2019-05-23T06:06:07.907Z,23.50
2019-05-23T06:08:39.886Z,24.10
2019-05-23T06:11:10.691Z,24.10
2019-05-23T06:13:40.933Z,24.80
2019-05-23T06:16:10.892Z,25.00
2019-05-23T06:18:40.774Z,25.70
2019-05-23T06:21:12.489Z,25.20
2019-05-23T06:23:42.750Z,24.70
2019-05-23T06:26:12.663Z,25.00
2019-05-23T06:28:43.451Z,24.70
2019-05-23T06:31:14.112Z,25.40
2019-05-23T06:33:44.178Z,26.40
2019-05-23T06:36:14.370Z,26.50
2019-05-23T06:38:44.611Z,26.60
2019-05-23T06:41:14.763Z,25.80
2019-05-23T06:43:44.864Z,26.40
2019-05-23T06:46:15.328Z,25.60
2019-05-23T06:48:45.980Z,25.10
2019-05-23T06:51:17.400Z,25.10
2019-05-23T06:53:47.611Z,24.80
2019-05-23T06:56:17.836Z,24.20
2019-05-23T06:58:48.966Z,25.00
2019-05-23T07:01:19.020Z,24.60
2019-05-23T07:03:48.910Z,25.70
2019-05-23T07:06:22.218Z,26.30
2019-05-23T07:08:52.639Z,27.00
2019-05-23T07:11:23.653Z,27.40
2019-05-23T07:13:53.540Z,26.80
2019-05-23T07:16:23.680Z,28.00
2019-05-23T07:18:53.673Z,27.80
2019-05-23T07:21:23.939Z,28.60
2019-05-23T07:23:53.878Z,28.70
2019-05-23T07:26:23.789Z,29.20
2019-05-23T07:28:54.415Z,28.70
2019-05-23T07:31:26.079Z,26.90
2019-05-23T07:34:01.606Z,27.10
2019-05-23T07:36:28.957Z,28.80
2019-05-23T07:38:58.906Z,27.50
2019-05-23T07:41:29.363Z,27.80
2019-05-23T07:43:59.445Z,27.00
2019-05-23T07:46:29.684Z,27.50
2019-05-23T07:48:59.607Z,27.70
2019-05-23T07:51:29.923Z,28.20
2019-05-23T07:54:07.172Z,28.40
2019-05-23T07:56:38.751Z,29.00
2019-05-23T07:59:08.891Z,29.50
2019-05-23T08:01:41.213Z,28.70
2019-05-23T08:04:21.474Z,28.70
2019-05-23T08:06:42.808Z,28.50
2019-05-23T08:09:13.167Z,30.20
2019-05-23T08:11:43.283Z,30.00
2019-05-23T08:14:13.648Z,29.20
2019-05-23T08:16:43.876Z,29.90
2019-05-23T08:19:19.244Z,29.20
2019-05-23T08:21:46.195Z,28.20
2019-05-23T08:24:16.189Z,27.90
2019-05-23T08:26:48.139Z,28.90
2019-05-23T08:29:26.596Z,29.40
2019-05-23T08:31:49.683Z,29.50
2019-05-23T08:34:19.778Z,29.60
2019-05-23T08:36:49.763Z,30.80
2019-05-23T08:39:20.023Z,31.10
2019-05-23T08:41:50.035Z,29.90
2019-05-23T08:44:21.109Z,29.50
2019-05-23T08:46:51.359Z,30.10
2019-05-23T08:49:22.218Z,30.00
2019-05-23T08:51:52.808Z,29.90
2019-05-23T08:54:22.835Z,30.00
2019-05-23T08:56:53.798Z,30.10
2019-05-23T08:59:23.685Z,30.20
2019-05-23T09:01:54.886Z,30.60
2019-05-23T09:04:25.268Z,31.10
2019-05-23T09:06:55.800Z,30.30
2019-05-23T09:09:29.505Z,31.20
2019-05-23T09:11:57.724Z,31.10
2019-05-23T09:14:27.535Z,28.50
2019-05-23T09:16:57.378Z,29.10
2019-05-23T09:19:27.621Z,29.40
2019-05-23T09:21:58.269Z,28.60
2019-05-23T09:24:29.377Z,28.10
2019-05-23T09:26:59.206Z,29.40
2019-05-23T09:29:29.375Z,30.70
2019-05-23T09:31:59.191Z,32.20
2019-05-23T09:34:29.781Z,31.10
2019-05-23T09:37:00.641Z,30.30
2019-05-23T09:39:30.991Z,29.30
2019-05-23T09:42:00.870Z,29.30
2019-05-23T09:44:31.026Z,31.30
2019-05-23T09:47:02.016Z,30.70
2019-05-23T09:49:31.921Z,30.30
2019-05-23T09:52:01.999Z,28.70
2019-05-23T09:54:32.745Z,28.10
2019-05-23T09:57:03.327Z,28.60
2019-05-23T09:59:33.400Z,29.70
2019-05-23T10:02:04.909Z,28.70
2019-05-23T10:04:35.275Z,29.10
2019-05-23T10:07:05.409Z,29.80
2019-05-23T10:09:35.535Z,29.50
2019-05-23T10:12:06.339Z,29.40
2019-05-23T10:14:40.031Z,29.90
2019-05-23T10:17:09.851Z,28.30
2019-05-23T10:19:40.337Z,28.60
2019-05-23T10:22:10.167Z,27.30
2019-05-23T10:24:40.310Z,25.80
2019-05-23T10:27:12.820Z,26.10
2019-05-23T10:29:43.054Z,26.00
2019-05-23T10:32:13.486Z,24.90
2019-05-23T10:34:43.300Z,25.30
2019-05-23T10:37:14.446Z,26.00
2019-05-23T10:39:47.343Z,26.10
2019-05-23T10:42:18.053Z,27.00
2019-05-23T10:44:47.929Z,25.90
2019-05-23T10:47:17.819Z,24.40
2019-05-23T10:49:48.031Z,25.30
2019-05-23T10:52:18.418Z,24.70
2019-05-23T10:54:51.452Z,25.00
2019-05-23T10:57:21.566Z,24.80
2019-05-23T10:59:52.343Z,25.20
2019-05-23T11:02:22.460Z,25.40
2019-05-23T11:04:52.547Z,25.30
2019-05-23T11:07:24.647Z,25.60
2019-05-23T11:09:55.044Z,25.20
2019-05-23T11:12:25.235Z,25.20
2019-05-23T11:14:55.359Z,24.00
2019-05-23T11:17:25.180Z,24.60
2019-05-23T11:19:54.984Z,25.40
2019-05-23T11:22:25.131Z,24.80
2019-05-23T11:24:55.238Z,24.90
2019-05-23T11:27:26.589Z,24.70
2019-05-23T11:29:56.623Z,25.00
2019-05-23T11:32:26.601Z,24.80
2019-05-23T11:34:56.826Z,24.90
2019-05-23T11:37:26.929Z,25.00
2019-05-23T11:39:57.592Z,23.80
2019-05-23T11:42:27.657Z,24.10
2019-05-23T11:44:57.448Z,24.50
2019-05-23T11:47:31.067Z,24.10
2019-05-23T11:49:58.911Z,24.20
2019-05-23T11:52:29.027Z,24.70
2019-05-23T11:54:58.916Z,24.70
2019-05-23T11:57:28.919Z,24.70
2019-05-23T11:59:59.231Z,24.50
2019-05-23T12:02:33.378Z,25.00
2019-05-23T12:05:06.112Z,25.00
2019-05-23T12:07:36.111Z,24.80
2019-05-23T12:10:07.275Z,24.60
2019-05-23T12:12:37.093Z,24.70
2019-05-23T12:15:11.453Z,25.10
2019-05-23T12:17:41.817Z,24.30
2019-05-23T12:20:12.662Z,24.50
2019-05-23T12:22:43.132Z,24.10
2019-05-23T12:25:22.153Z,24.60
2019-05-23T12:27:45.327Z,23.90
2019-05-23T12:30:16.991Z,24.20
2019-05-23T12:32:47.065Z,24.20
2019-05-23T12:35:16.889Z,24.70
2019-05-23T12:37:47.006Z,24.60
2019-05-23T12:40:17.319Z,24.90
2019-05-23T12:42:47.187Z,24.50
2019-05-23T12:45:23.021Z,24.10
2019-05-23T12:47:57.479Z,23.90
2019-05-23T12:50:40.809Z,23.60
2019-05-23T12:53:12.494Z,23.90
2019-05-23T12:55:42.477Z,24.20
2019-05-23T12:58:12.317Z,24.60
2019-05-23T13:00:43.921Z,24.40
2019-05-23T13:03:15.932Z,23.60
2019-05-23T13:05:46.121Z,23.70
2019-05-23T13:08:16.526Z,23.80
2019-05-23T13:10:46.565Z,24.20
2019-05-23T13:13:16.792Z,24.20
2019-05-23T13:15:47.897Z,24.40
2019-05-23T13:18:17.956Z,24.10
2019-05-23T13:20:48.408Z,24.10
2019-05-23T13:23:21.158Z,24.10
2019-05-23T13:25:50.256Z,23.50
2019-05-23T13:28:20.805Z,23.50
2019-05-23T13:30:51.159Z,23.90
2019-05-23T13:33:21.187Z,24.60
2019-05-23T13:35:51.517Z,24.00
2019-05-23T13:38:21.439Z,23.70
2019-05-23T13:40:51.331Z,23.90
2019-05-23T13:43:22.832Z,23.70
2019-05-23T13:45:52.818Z,24.20
2019-05-23T13:48:27.628Z,24.30
2019-05-23T13:50:54.771Z,23.40
2019-05-23T13:53:25.058Z,23.60
2019-05-23T13:55:55.111Z,23.80
2019-05-23T13:58:25.101Z,23.50
2019-05-23T14:00:55.003Z,23.50
2019-05-23T14:03:24.989Z,23.80
2019-05-23T14:05:55.098Z,23.90
2019-05-23T14:08:25.311Z,23.70
2019-05-23T14:10:55.359Z,23.50
2019-05-23T14:13:26.019Z,23.20
2019-05-23T14:15:56.278Z,23.70
2019-05-23T14:18:28.008Z,23.80
2019-05-23T14:20:58.244Z,23.60
2019-05-23T14:23:30.811Z,23.20
2019-05-23T14:26:03.450Z,23.20
2019-05-23T14:28:33.779Z,23.50
2019-05-23T14:31:11.284Z,23.40
2019-05-23T14:33:58.679Z,23.10
2019-05-23T14:36:48.475Z,23.20
2019-05-23T14:39:20.184Z,23.00
2019-05-23T14:41:57.920Z,23.50
2019-05-23T14:44:28.770Z,23.90
2019-05-23T14:47:18.702Z,23.80
2019-05-23T14:49:56.565Z,23.50
2019-05-23T14:52:34.262Z,23.90
2019-05-23T14:55:10.176Z,24.00
2019-05-23T14:57:38.798Z,23.70
2019-05-23T15:00:09.615Z,23.80
2019-05-23T15:02:39.792Z,23.90
2019-05-23T15:05:10.458Z,24.20
2019-05-23T15:07:40.527Z,23.90
2019-05-23T15:10:10.541Z,24.10
2019-05-23T15:12:40.797Z,24.10
2019-05-23T15:15:10.995Z,24.20
2019-05-23T15:17:40.808Z,24.10
2019-05-23T15:20:10.757Z,23.90
2019-05-23T15:22:40.564Z,24.00
2019-05-23T15:25:10.609Z,23.70
2019-05-23T15:27:40.482Z,23.80
2019-05-23T15:30:10.825Z,23.70
2019-05-23T15:32:40.699Z,23.60
2019-05-23T15:35:11.856Z,23.70
2019-05-23T15:37:41.816Z,23.50
2019-05-23T15:40:12.126Z,23.50
2019-05-23T15:42:42.233Z,23.20
2019-05-23T15:45:12.459Z,23.30
2019-05-23T15:47:42.723Z,23.30
2019-05-23T15:50:14.353Z,23.20
2019-05-23T15:52:45.798Z,23.00
2019-05-23T15:55:17.368Z,23.10
2019-05-23T15:58:05.176Z,23.10
2019-05-23T16:00:45.598Z,23.00
2019-05-23T16:03:17.399Z,23.00
2019-05-23T16:05:47.312Z,23.00
2019-05-23T16:08:17.928Z,23.00
2019-05-23T16:10:48.712Z,23.00
2019-05-23T16:13:18.968Z,23.10
2019-05-23T16:15:49.173Z,23.00
2019-05-23T16:18:20.034Z,23.10
2019-05-23T16:20:49.905Z,23.10
2019-05-23T16:23:19.709Z,23.00
2019-05-23T16:25:49.512Z,22.90
2019-05-23T16:28:19.405Z,22.80
2019-05-23T16:30:50.307Z,22.60
2019-05-23T16:33:20.385Z,22.60
2019-05-23T16:35:50.263Z,22.30
2019-05-23T16:38:20.284Z,22.20
2019-05-23T16:40:50.337Z,22.20
2019-05-23T16:43:20.519Z,22.10
2019-05-23T16:45:50.682Z,22.00
2019-05-23T16:48:20.800Z,22.10
2019-05-23T16:50:50.908Z,22.30
2019-05-23T16:53:21.220Z,22.30
2019-05-23T16:55:55.942Z,22.30
2019-05-23T16:58:30.296Z,22.40
2019-05-23T17:01:01.909Z,22.20
2019-05-23T17:03:39.421Z,22.10
2019-05-23T17:06:22.805Z,22.10
2019-05-23T17:08:57.226Z,22.10
2019-05-23T17:11:34.975Z,22.00
2019-05-23T17:14:06.949Z,21.90
2019-05-23T17:16:41.958Z,21.80
2019-05-23T17:19:29.315Z,21.60
2019-05-23T17:22:00.759Z,21.40
2019-05-23T17:24:41.036Z,21.40
2019-05-23T17:27:18.471Z,21.30
2019-05-23T17:29:55.610Z,21.30
2019-05-23T17:32:27.117Z,21.20
2019-05-23T17:34:56.995Z,21.10
2019-05-23T17:37:27.112Z,21.00
2019-05-23T17:39:57.253Z,21.00
2019-05-23T17:42:27.309Z,20.90
2019-05-23T17:44:58.151Z,20.80
2019-05-23T17:47:28.444Z,20.70
2019-05-23T17:49:58.323Z,20.70
2019-05-23T17:52:28.631Z,20.70
2019-05-23T17:54:58.512Z,20.70
2019-05-23T17:57:29.583Z,20.60
2019-05-23T17:59:59.544Z,20.60
2019-05-23T18:02:29.849Z,20.50
2019-05-23T18:05:00.341Z,20.50
2019-05-23T18:07:30.743Z,20.40
2019-05-23T18:10:00.855Z,20.30
2019-05-23T18:12:30.933Z,20.30
2019-05-23T18:15:00.719Z,20.10
2019-05-23T18:17:30.836Z,20.10
2019-05-23T18:20:00.986Z,20.10
2019-05-23T18:22:32.431Z,20.00
2019-05-23T18:25:02.536Z,19.90
2019-05-23T18:27:32.776Z,19.90
2019-05-23T18:30:06.783Z,19.80
2019-05-23T18:32:36.911Z,19.70
2019-05-23T18:35:07.722Z,19.60
2019-05-23T18:37:38.007Z,19.60
2019-05-23T18:40:08.365Z,19.40
2019-05-23T18:42:39.423Z,19.30
2019-05-23T18:45:09.598Z,19.10
2019-05-23T18:47:41.470Z,18.90
2019-05-23T18:50:13.329Z,18.80
2019-05-23T18:52:44.151Z,18.80
2019-05-23T18:55:14.264Z,18.60
2019-05-23T18:57:44.623Z,18.50
2019-05-23T19:00:15.354Z,18.40
2019-05-23T19:02:45.168Z,18.30
2019-05-23T19:05:16.350Z,18.10
2019-05-23T19:07:46.520Z,18.00
2019-05-23T19:10:16.574Z,17.90
2019-05-23T19:12:46.857Z,17.80
2019-05-23T19:15:17.278Z,17.60
2019-05-23T19:17:47.309Z,17.50
2019-05-23T19:20:17.382Z,17.30
2019-05-23T19:22:47.222Z,17.20
2019-05-23T19:25:17.837Z,17.10
2019-05-23T19:27:48.068Z,16.90
2019-05-23T19:30:18.331Z,16.80
2019-05-23T19:32:48.652Z,16.70
2019-05-23T19:35:18.880Z,16.50
2019-05-23T19:37:49.057Z,16.40
2019-05-23T19:40:19.171Z,16.20
2019-05-23T19:42:49.278Z,16.00
2019-05-23T19:45:19.330Z,15.80
2019-05-23T19:47:49.431Z,15.70
2019-05-23T19:50:19.412Z,15.60
2019-05-23T19:52:49.260Z,15.50
2019-05-23T19:55:19.067Z,15.40
2019-05-23T19:57:49.308Z,15.40
2019-05-23T20:00:20.893Z,15.40
2019-05-23T20:03:03.239Z,15.50
2019-05-23T20:05:33.165Z,15.60
2019-05-23T20:08:03.286Z,15.60
2019-05-23T20:10:33.822Z,15.70
2019-05-23T20:13:03.773Z,15.70
2019-05-23T20:15:34.577Z,15.60
2019-05-23T20:18:05.073Z,15.60
2019-05-23T20:20:36.657Z,15.60
2019-05-23T20:23:07.342Z,15.50
2019-05-23T20:25:37.557Z,15.50
2019-05-23T20:28:08.676Z,15.40
2019-05-23T20:30:45.653Z,15.40
2019-05-23T20:33:15.737Z,15.30
2019-05-23T20:35:45.544Z,15.20
2019-05-23T20:38:15.566Z,15.20
2019-05-23T20:40:45.451Z,15.10
2019-05-23T20:43:15.572Z,15.10
2019-05-23T20:45:45.484Z,15.10
2019-05-23T20:48:16.017Z,14.90
2019-05-23T20:50:45.978Z,14.90
2019-05-23T20:53:15.874Z,14.80
2019-05-23T20:55:45.941Z,14.80
2019-05-23T20:58:16.575Z,14.80
2019-05-23T21:00:48.026Z,14.90
2019-05-23T21:03:19.590Z,14.90
2019-05-23T21:05:49.545Z,14.70
2019-05-23T21:08:19.358Z,14.70
2019-05-23T21:10:49.630Z,14.60
2019-05-23T21:13:19.825Z,14.50
2019-05-23T21:15:50.211Z,14.40
2019-05-23T21:18:20.391Z,14.30
2019-05-23T21:20:50.330Z,14.20
2019-05-23T21:23:20.273Z,14.30
2019-05-23T21:25:54.573Z,14.40
2019-05-23T21:28:24.682Z,14.50
2019-05-23T21:30:54.621Z,14.50
2019-05-23T21:33:25.151Z,14.40
2019-05-23T21:35:55.030Z,14.30
2019-05-23T21:38:25.815Z,14.30
2019-05-23T21:40:55.871Z,14.30
2019-05-23T21:43:25.751Z,14.20
2019-05-23T21:45:55.832Z,14.10
2019-05-23T21:48:25.628Z,14.00
2019-05-23T21:50:55.431Z,13.90
2019-05-23T21:53:25.485Z,13.90
2019-05-23T21:55:55.286Z,13.90
2019-05-23T21:58:25.168Z,13.90
2019-05-23T22:01:08.555Z,13.80
2019-05-23T22:03:53.879Z,13.70
2019-05-23T22:06:36.050Z,13.60
2019-05-23T22:09:09.081Z,13.60
2019-05-23T22:11:39.283Z,13.60
2019-05-23T22:14:09.513Z,13.50
2019-05-23T22:16:39.486Z,13.50
2019-05-23T22:19:11.242Z,13.50
2019-05-23T22:21:41.324Z,13.50
2019-05-23T22:24:11.901Z,13.60
2019-05-23T22:26:41.711Z,13.60
2019-05-23T22:29:12.000Z,13.70
2019-05-23T22:31:41.849Z,13.60
2019-05-23T22:34:19.653Z,13.50
2019-05-23T22:36:49.458Z,13.30
2019-05-23T22:39:19.389Z,13.30
2019-05-23T22:41:49.195Z,13.20
2019-05-23T22:44:19.146Z,13.10
2019-05-23T22:46:49.087Z,13.10
2019-05-23T22:49:20.283Z,13.00
2019-05-23T22:51:50.326Z,13.00
2019-05-23T22:54:20.200Z,13.00
2019-05-23T22:56:50.243Z,12.90
2019-05-23T22:59:20.359Z,12.90
2019-05-23T23:01:50.246Z,12.90
2019-05-23T23:04:20.066Z,12.80
2019-05-23T23:06:49.868Z,12.80
2019-05-23T23:09:20.497Z,12.70
2019-05-23T23:11:50.307Z,12.60
2019-05-23T23:14:20.107Z,12.50
2019-05-23T23:16:50.395Z,12.50
2019-05-23T23:19:20.324Z,12.30
2019-05-23T23:21:50.134Z,12.20
2019-05-23T23:24:20.347Z,12.20
2019-05-23T23:26:50.459Z,12.10
2019-05-23T23:29:20.509Z,12.00
2019-05-23T23:31:50.753Z,11.90
2019-05-23T23:34:20.880Z,11.80
2019-05-23T23:36:50.691Z,11.80
2019-05-23T23:39:20.821Z,11.70
2019-05-23T23:41:50.637Z,11.70
2019-05-23T23:44:21.906Z,11.80
2019-05-23T23:47:09.896Z,11.80
2019-05-23T23:49:57.903Z,11.60
2019-05-23T23:52:45.478Z,11.50
2019-05-23T23:55:33.175Z,11.60
2019-05-23T23:58:02.366Z,11.60
